sensor_id;sensor_type;location;lat;lon;timestamp;P1;durP1;ratioP1;P2;durP2;ratioP2
19836;SDS011;10079;55.740;37.662;2022-11-09T00:07:46;22.27;;;11.30;;
19836;SDS011;10079;55.740;37.662;2022-11-09T00:10:51;19.63;;;10.97;;
19836;SDS011;10079;55.740;37.662;2022-11-09T00:13:59;19.37;;;11.27;;
19836;SDS011;10079;55.740;37.662;2022-11-09T00:27:55;19.43;;;10.63;;
19836;SDS011;10079;55.740;37.662;2022-11-09T00:52:05;19.83;;;11.20;;
19836;SDS011;10079;55.740;37.662;2022-11-09T00:55:09;22.30;;;11.43;;
19836;SDS011;10079;55.740;37.662;2022-11-09T00:58:12;19.37;;;11.57;;
19836;SDS011;10079;55.740;37.662;2022-11-09T01:01:16;20.03;;;10.93;;
19836;SDS011;10079;55.740;37.662;2022-11-09T01:04:26;22.70;;;11.37;;
19836;SDS011;10079;55.740;37.662;2022-11-09T01:07:32;22.47;;;11.50;;
19836;SDS011;10079;55.740;37.662;2022-11-09T01:10:40;21.77;;;10.67;;
19836;SDS011;10079;55.740;37.662;2022-11-09T01:13:45;24.57;;;12.30;;
19836;SDS011;10079;55.740;37.662;2022-11-09T01:16:49;24.03;;;11.80;;
19836;SDS011;10079;55.740;37.662;2022-11-09T01:19:52;22.50;;;11.47;;
19836;SDS011;10079;55.740;37.662;2022-11-09T01:22:55;22.17;;;11.37;;
19836;SDS011;10079;55.740;37.662;2022-11-09T01:25:59;27.27;;;12.73;;
19836;SDS011;10079;55.740;37.662;2022-11-09T01:29:02;23.67;;;11.60;;
19836;SDS011;10079;55.740;37.662;2022-11-09T01:32:04;23.63;;;11.73;;
19836;SDS011;10079;55.740;37.662;2022-11-09T01:35:08;22.00;;;11.97;;
19836;SDS011;10079;55.740;37.662;2022-11-09T01:38:14;25.93;;;12.83;;
19836;SDS011;10079;55.740;37.662;2022-11-09T01:51:55;25.17;;;13.20;;
19836;SDS011;10079;55.740;37.662;2022-11-09T01:54:58;26.13;;;13.27;;
19836;SDS011;10079;55.740;37.662;2022-11-09T01:58:06;23.20;;;11.77;;
19836;SDS011;10079;55.740;37.662;2022-11-09T02:01:07;20.50;;;11.27;;
19836;SDS011;10079;55.740;37.662;2022-11-09T02:04:28;25.57;;;12.17;;
19836;SDS011;10079;55.740;37.662;2022-11-09T02:07:30;23.17;;;12.73;;
19836;SDS011;10079;55.740;37.662;2022-11-09T02:10:37;24.40;;;12.63;;
19836;SDS011;10079;55.740;37.662;2022-11-09T02:13:38;26.03;;;12.13;;
19836;SDS011;10079;55.740;37.662;2022-11-09T02:16:44;26.23;;;12.63;;
19836;SDS011;10079;55.740;37.662;2022-11-09T02:19:47;26.27;;;13.57;;
19836;SDS011;10079;55.740;37.662;2022-11-09T02:22:50;25.70;;;12.60;;
19836;SDS011;10079;55.740;37.662;2022-11-09T02:25:57;28.60;;;12.37;;
19836;SDS011;10079;55.740;37.662;2022-11-09T02:29:00;28.20;;;13.30;;
19836;SDS011;10079;55.740;37.662;2022-11-09T02:32:04;26.27;;;13.23;;
19836;SDS011;10079;55.740;37.662;2022-11-09T02:35:10;28.10;;;11.97;;
19836;SDS011;10079;55.740;37.662;2022-11-09T02:38:13;26.80;;;12.67;;
19836;SDS011;10079;55.740;37.662;2022-11-09T02:41:17;23.43;;;11.23;;
19836;SDS011;10079;55.740;37.662;2022-11-09T02:44:20;23.63;;;11.50;;
19836;SDS011;10079;55.740;37.662;2022-11-09T02:47:22;19.77;;;11.07;;
19836;SDS011;10079;55.740;37.662;2022-11-09T02:50:26;21.57;;;10.20;;
19836;SDS011;10079;55.740;37.662;2022-11-09T02:53:32;20.90;;;10.30;;
19836;SDS011;10079;55.740;37.662;2022-11-09T02:56:38;21.27;;;10.17;;
19836;SDS011;10079;55.740;37.662;2022-11-09T02:59:42;19.97;;;10.43;;
19836;SDS011;10079;55.740;37.662;2022-11-09T03:02:57;17.07;;;9.13;;
19836;SDS011;10079;55.740;37.662;2022-11-09T03:27:15;15.57;;;9.27;;
19836;SDS011;10079;55.740;37.662;2022-11-09T03:30:19;18.67;;;8.90;;
19836;SDS011;10079;55.740;37.662;2022-11-09T03:33:22;14.60;;;8.47;;
19836;SDS011;10079;55.740;37.662;2022-11-09T03:36:28;15.90;;;8.43;;
19836;SDS011;10079;55.740;37.662;2022-11-09T03:39:34;16.43;;;8.43;;
19836;SDS011;10079;55.740;37.662;2022-11-09T03:42:43;18.70;;;9.83;;
19836;SDS011;10079;55.740;37.662;2022-11-09T03:45:46;16.90;;;9.27;;
19836;SDS011;10079;55.740;37.662;2022-11-09T03:48:49;17.10;;;8.57;;
19836;SDS011;10079;55.740;37.662;2022-11-09T03:51:55;15.53;;;8.53;;
19836;SDS011;10079;55.740;37.662;2022-11-09T03:55:03;18.47;;;9.80;;
19836;SDS011;10079;55.740;37.662;2022-11-09T03:58:07;17.00;;;9.40;;
19836;SDS011;10079;55.740;37.662;2022-11-09T04:01:10;18.87;;;9.43;;
19836;SDS011;10079;55.740;37.662;2022-11-09T04:04:21;19.83;;;11.37;;
19836;SDS011;10079;55.740;37.662;2022-11-09T04:07:27;14.80;;;8.83;;
19836;SDS011;10079;55.740;37.662;2022-11-09T04:10:33;16.43;;;8.83;;
19836;SDS011;10079;55.740;37.662;2022-11-09T04:13:37;18.63;;;9.53;;
19836;SDS011;10079;55.740;37.662;2022-11-09T04:16:40;18.37;;;9.50;;
19836;SDS011;10079;55.740;37.662;2022-11-09T04:19:42;18.23;;;9.30;;
19836;SDS011;10079;55.740;37.662;2022-11-09T04:22:45;16.70;;;9.03;;
19836;SDS011;10079;55.740;37.662;2022-11-09T04:26:00;16.63;;;9.97;;
19836;SDS011;10079;55.740;37.662;2022-11-09T04:39:37;19.03;;;9.70;;
19836;SDS011;10079;55.740;37.662;2022-11-09T04:42:40;17.70;;;9.00;;
19836;SDS011;10079;55.740;37.662;2022-11-09T04:45:43;16.40;;;9.87;;
19836;SDS011;10079;55.740;37.662;2022-11-09T04:48:49;16.47;;;9.47;;
19836;SDS011;10079;55.740;37.662;2022-11-09T04:51:52;18.60;;;10.07;;
19836;SDS011;10079;55.740;37.662;2022-11-09T04:54:56;16.07;;;10.03;;
19836;SDS011;10079;55.740;37.662;2022-11-09T04:57:59;15.53;;;9.63;;
19836;SDS011;10079;55.740;37.662;2022-11-09T05:01:09;17.20;;;10.07;;
19836;SDS011;10079;55.740;37.662;2022-11-09T05:04:10;17.60;;;9.80;;
19836;SDS011;10079;55.740;37.662;2022-11-09T05:07:13;18.30;;;9.70;;
19836;SDS011;10079;55.740;37.662;2022-11-09T05:10:17;16.47;;;8.90;;
19836;SDS011;10079;55.740;37.662;2022-11-09T05:13:20;15.87;;;9.93;;
19836;SDS011;10079;55.740;37.662;2022-11-09T05:16:23;18.33;;;9.87;;
19836;SDS011;10079;55.740;37.662;2022-11-09T05:19:30;17.53;;;9.83;;
19836;SDS011;10079;55.740;37.662;2022-11-09T05:22:38;18.23;;;9.53;;
19836;SDS011;10079;55.740;37.662;2022-11-09T05:25:41;16.50;;;9.00;;
19836;SDS011;10079;55.740;37.662;2022-11-09T05:28:45;15.83;;;9.00;;
19836;SDS011;10079;55.740;37.662;2022-11-09T05:31:50;20.60;;;10.80;;
19836;SDS011;10079;55.740;37.662;2022-11-09T05:34:56;19.47;;;10.40;;
19836;SDS011;10079;55.740;37.662;2022-11-09T05:48:46;16.77;;;10.23;;
19836;SDS011;10079;55.740;37.662;2022-11-09T06:02:29;15.03;;;9.20;;
19836;SDS011;10079;55.740;37.662;2022-11-09T06:05:31;14.27;;;8.53;;
19836;SDS011;10079;55.740;37.662;2022-11-09T06:08:38;13.63;;;8.63;;
19836;SDS011;10079;55.740;37.662;2022-11-09T06:11:42;14.23;;;8.50;;
19836;SDS011;10079;55.740;37.662;2022-11-09T06:14:46;14.57;;;9.27;;
19836;SDS011;10079;55.740;37.662;2022-11-09T06:17:51;13.13;;;8.50;;
19836;SDS011;10079;55.740;37.662;2022-11-09T06:20:58;13.73;;;8.03;;
19836;SDS011;10079;55.740;37.662;2022-11-09T06:24:00;15.90;;;8.80;;
19836;SDS011;10079;55.740;37.662;2022-11-09T06:27:06;16.10;;;8.83;;
19836;SDS011;10079;55.740;37.662;2022-11-09T06:30:18;14.23;;;8.40;;
19836;SDS011;10079;55.740;37.662;2022-11-09T06:33:24;17.23;;;8.50;;
19836;SDS011;10079;55.740;37.662;2022-11-09T06:36:31;15.10;;;8.17;;
19836;SDS011;10079;55.740;37.662;2022-11-09T06:39:34;14.03;;;8.63;;
19836;SDS011;10079;55.740;37.662;2022-11-09T06:42:37;13.60;;;8.27;;
19836;SDS011;10079;55.740;37.662;2022-11-09T06:45:40;13.13;;;8.57;;
19836;SDS011;10079;55.740;37.662;2022-11-09T06:48:43;15.00;;;8.10;;
19836;SDS011;10079;55.740;37.662;2022-11-09T06:51:46;14.20;;;9.00;;
19836;SDS011;10079;55.740;37.662;2022-11-09T06:54:49;13.63;;;7.83;;
19836;SDS011;10079;55.740;37.662;2022-11-09T06:57:52;14.80;;;8.07;;
19836;SDS011;10079;55.740;37.662;2022-11-09T07:01:06;15.67;;;9.20;;
19836;SDS011;10079;55.740;37.662;2022-11-09T07:04:08;13.83;;;8.27;;
19836;SDS011;10079;55.740;37.662;2022-11-09T07:07:11;14.47;;;8.53;;
19836;SDS011;10079;55.740;37.662;2022-11-09T07:20:48;14.97;;;8.73;;
19836;SDS011;10079;55.740;37.662;2022-11-09T07:24:04;14.17;;;8.70;;
19836;SDS011;10079;55.740;37.662;2022-11-09T07:27:11;15.73;;;8.97;;
19836;SDS011;10079;55.740;37.662;2022-11-09T07:30:17;15.33;;;8.80;;
19836;SDS011;10079;55.740;37.662;2022-11-09T07:33:23;15.60;;;8.70;;
19836;SDS011;10079;55.740;37.662;2022-11-09T07:36:30;13.50;;;7.87;;
19836;SDS011;10079;55.740;37.662;2022-11-09T07:39:36;12.73;;;7.60;;
19836;SDS011;10079;55.740;37.662;2022-11-09T07:42:39;13.43;;;8.30;;
19836;SDS011;10079;55.740;37.662;2022-11-09T07:45:43;13.43;;;7.80;;
19836;SDS011;10079;55.740;37.662;2022-11-09T07:48:47;15.57;;;9.40;;
19836;SDS011;10079;55.740;37.662;2022-11-09T07:51:50;12.27;;;7.27;;
19836;SDS011;10079;55.740;37.662;2022-11-09T07:54:53;11.47;;;7.60;;
19836;SDS011;10079;55.740;37.662;2022-11-09T07:57:57;15.37;;;8.63;;
19836;SDS011;10079;55.740;37.662;2022-11-09T08:01:00;15.30;;;9.63;;
19836;SDS011;10079;55.740;37.662;2022-11-09T08:04:03;12.00;;;8.30;;
19836;SDS011;10079;55.740;37.662;2022-11-09T08:07:06;17.67;;;8.33;;
19836;SDS011;10079;55.740;37.662;2022-11-09T08:10:09;14.00;;;8.40;;
19836;SDS011;10079;55.740;37.662;2022-11-09T08:13:13;17.57;;;8.93;;
19836;SDS011;10079;55.740;37.662;2022-11-09T08:16:19;15.73;;;8.53;;
19836;SDS011;10079;55.740;37.662;2022-11-09T08:19:22;16.20;;;9.37;;
19836;SDS011;10079;55.740;37.662;2022-11-09T08:22:25;17.30;;;9.03;;
19836;SDS011;10079;55.740;37.662;2022-11-09T08:25:32;14.97;;;9.23;;
19836;SDS011;10079;55.740;37.662;2022-11-09T08:28:35;16.53;;;8.60;;
19836;SDS011;10079;55.740;37.662;2022-11-09T08:31:38;15.20;;;9.53;;
19836;SDS011;10079;55.740;37.662;2022-11-09T08:34:46;15.33;;;8.87;;
19836;SDS011;10079;55.740;37.662;2022-11-09T08:37:59;14.13;;;8.67;;
19836;SDS011;10079;55.740;37.662;2022-11-09T08:41:09;13.73;;;8.10;;
19836;SDS011;10079;55.740;37.662;2022-11-09T08:44:12;16.97;;;8.33;;
19836;SDS011;10079;55.740;37.662;2022-11-09T08:47:15;12.90;;;7.90;;
19836;SDS011;10079;55.740;37.662;2022-11-09T08:50:18;14.23;;;7.57;;
19836;SDS011;10079;55.740;37.662;2022-11-09T09:04:09;12.00;;;7.53;;
19836;SDS011;10079;55.740;37.662;2022-11-09T09:07:15;11.93;;;6.80;;
19836;SDS011;10079;55.740;37.662;2022-11-09T09:10:20;11.90;;;6.77;;
19836;SDS011;10079;55.740;37.662;2022-11-09T09:13:25;11.30;;;7.03;;
19836;SDS011;10079;55.740;37.662;2022-11-09T09:16:28;9.30;;;6.37;;
19836;SDS011;10079;55.740;37.662;2022-11-09T09:19:49;10.77;;;6.83;;
19836;SDS011;10079;55.740;37.662;2022-11-09T09:22:52;10.83;;;7.10;;
19836;SDS011;10079;55.740;37.662;2022-11-09T09:25:56;11.77;;;6.40;;
19836;SDS011;10079;55.740;37.662;2022-11-09T09:28:58;11.90;;;7.33;;
19836;SDS011;10079;55.740;37.662;2022-11-09T09:32:04;12.50;;;7.27;;
19836;SDS011;10079;55.740;37.662;2022-11-09T09:35:11;10.57;;;6.43;;
19836;SDS011;10079;55.740;37.662;2022-11-09T09:48:55;12.60;;;8.10;;
19836;SDS011;10079;55.740;37.662;2022-11-09T09:55:27;11.80;;;7.03;;
19836;SDS011;10079;55.740;37.662;2022-11-09T09:58:39;12.17;;;6.73;;
19836;SDS011;10079;55.740;37.662;2022-11-09T10:01:43;12.70;;;7.43;;
19836;SDS011;10079;55.740;37.662;2022-11-09T10:04:45;12.27;;;7.87;;
19836;SDS011;10079;55.740;37.662;2022-11-09T10:08:00;13.33;;;6.80;;
19836;SDS011;10079;55.740;37.662;2022-11-09T10:11:18;13.07;;;7.57;;
19836;SDS011;10079;55.740;37.662;2022-11-09T10:14:33;11.53;;;7.27;;
19836;SDS011;10079;55.740;37.662;2022-11-09T10:17:50;12.80;;;7.80;;
19836;SDS011;10079;55.740;37.662;2022-11-09T10:21:10;14.23;;;7.83;;
19836;SDS011;10079;55.740;37.662;2022-11-09T10:27:42;16.37;;;8.93;;
19836;SDS011;10079;55.740;37.662;2022-11-09T10:30:48;17.30;;;8.97;;
19836;SDS011;10079;55.740;37.662;2022-11-09T10:33:54;15.83;;;8.63;;
19836;SDS011;10079;55.740;37.662;2022-11-09T10:36:58;15.17;;;9.30;;
19836;SDS011;10079;55.740;37.662;2022-11-09T10:40:02;14.03;;;8.27;;
19836;SDS011;10079;55.740;37.662;2022-11-09T10:54:12;11.23;;;7.43;;
19836;SDS011;10079;55.740;37.662;2022-11-09T11:18:26;13.07;;;8.07;;
19836;SDS011;10079;55.740;37.662;2022-11-09T11:21:30;14.03;;;8.70;;
19836;SDS011;10079;55.740;37.662;2022-11-09T11:24:40;13.57;;;8.30;;
19836;SDS011;10079;55.740;37.662;2022-11-09T11:28:01;13.77;;;8.43;;
19836;SDS011;10079;55.740;37.662;2022-11-09T11:31:10;13.93;;;8.13;;
19836;SDS011;10079;55.740;37.662;2022-11-09T11:34:13;11.40;;;7.20;;
19836;SDS011;10079;55.740;37.662;2022-11-09T11:37:22;14.47;;;7.03;;
19836;SDS011;10079;55.740;37.662;2022-11-09T11:40:28;13.17;;;7.23;;
19836;SDS011;10079;55.740;37.662;2022-11-09T11:43:41;12.97;;;7.07;;
19836;SDS011;10079;55.740;37.662;2022-11-09T11:47:06;10.83;;;6.87;;
19836;SDS011;10079;55.740;37.662;2022-11-09T11:50:18;12.70;;;7.40;;
19836;SDS011;10079;55.740;37.662;2022-11-09T11:53:46;11.47;;;7.40;;
19836;SDS011;10079;55.740;37.662;2022-11-09T12:10:50;9.83;;;6.67;;
19836;SDS011;10079;55.740;37.662;2022-11-09T12:13:56;11.87;;;7.03;;
19836;SDS011;10079;55.740;37.662;2022-11-09T12:20:38;8.77;;;5.77;;
19836;SDS011;10079;55.740;37.662;2022-11-09T12:23:47;8.80;;;5.93;;
19836;SDS011;10079;55.740;37.662;2022-11-09T12:27:04;9.70;;;5.60;;
19836;SDS011;10079;55.740;37.662;2022-11-09T12:30:21;6.60;;;5.33;;
19836;SDS011;10079;55.740;37.662;2022-11-09T12:33:42;7.67;;;5.03;;
19836;SDS011;10079;55.740;37.662;2022-11-09T12:36:50;8.53;;;5.80;;
19836;SDS011;10079;55.740;37.662;2022-11-09T12:39:52;8.23;;;6.00;;
19836;SDS011;10079;55.740;37.662;2022-11-09T12:46:32;8.10;;;5.43;;
19836;SDS011;10079;55.740;37.662;2022-11-09T12:49:35;9.37;;;5.50;;
19836;SDS011;10079;55.740;37.662;2022-11-09T12:52:39;10.17;;;6.00;;
19836;SDS011;10079;55.740;37.662;2022-11-09T12:55:46;9.33;;;6.03;;
19836;SDS011;10079;55.740;37.662;2022-11-09T12:58:48;9.03;;;6.20;;
19836;SDS011;10079;55.740;37.662;2022-11-09T13:02:15;9.10;;;5.37;;
19836;SDS011;10079;55.740;37.662;2022-11-09T13:08:32;8.43;;;5.60;;
19836;SDS011;10079;55.740;37.662;2022-11-09T13:11:48;9.70;;;5.63;;
19836;SDS011;10079;55.740;37.662;2022-11-09T13:14:50;9.13;;;5.67;;
19836;SDS011;10079;55.740;37.662;2022-11-09T13:24:50;8.93;;;6.50;;
19836;SDS011;10079;55.740;37.662;2022-11-09T13:27:53;8.57;;;5.60;;
19836;SDS011;10079;55.740;37.662;2022-11-09T13:30:56;11.63;;;6.87;;
19836;SDS011;10079;55.740;37.662;2022-11-09T13:44:42;11.37;;;7.10;;
19836;SDS011;10079;55.740;37.662;2022-11-09T13:47:48;10.27;;;7.30;;
19836;SDS011;10079;55.740;37.662;2022-11-09T13:50:52;10.30;;;7.37;;
19836;SDS011;10079;55.740;37.662;2022-11-09T13:57:23;10.23;;;6.87;;
19836;SDS011;10079;55.740;37.662;2022-11-09T14:00:29;12.23;;;7.73;;
19836;SDS011;10079;55.740;37.662;2022-11-09T14:03:48;11.80;;;7.97;;
19836;SDS011;10079;55.740;37.662;2022-11-09T14:06:48;9.47;;;6.83;;
19836;SDS011;10079;55.740;37.662;2022-11-09T14:24:15;11.30;;;6.93;;
19836;SDS011;10079;55.740;37.662;2022-11-09T14:27:22;12.27;;;7.57;;
19836;SDS011;10079;55.740;37.662;2022-11-09T14:30:29;10.97;;;7.03;;
19836;SDS011;10079;55.740;37.662;2022-11-09T14:33:32;11.50;;;7.77;;
19836;SDS011;10079;55.740;37.662;2022-11-09T14:36:46;12.37;;;7.53;;
19836;SDS011;10079;55.740;37.662;2022-11-09T14:39:51;13.57;;;7.87;;
19836;SDS011;10079;55.740;37.662;2022-11-09T14:43:05;13.90;;;8.57;;
19836;SDS011;10079;55.740;37.662;2022-11-09T14:46:16;11.77;;;7.60;;
19836;SDS011;10079;55.740;37.662;2022-11-09T14:49:23;12.37;;;7.97;;
19836;SDS011;10079;55.740;37.662;2022-11-09T14:52:28;12.27;;;8.63;;
19836;SDS011;10079;55.740;37.662;2022-11-09T14:55:36;14.13;;;8.90;;
19836;SDS011;10079;55.740;37.662;2022-11-09T14:58:39;13.37;;;8.20;;
19836;SDS011;10079;55.740;37.662;2022-11-09T15:04:56;13.63;;;8.77;;
19836;SDS011;10079;55.740;37.662;2022-11-09T15:08:02;14.50;;;8.50;;
19836;SDS011;10079;55.740;37.662;2022-11-09T15:11:08;15.43;;;9.07;;
19836;SDS011;10079;55.740;37.662;2022-11-09T15:17:46;16.70;;;9.50;;
19836;SDS011;10079;55.740;37.662;2022-11-09T15:21:08;15.00;;;8.93;;
19836;SDS011;10079;55.740;37.662;2022-11-09T15:24:04;15.67;;;9.77;;
19836;SDS011;10079;55.740;37.662;2022-11-09T15:27:25;16.60;;;9.67;;
19836;SDS011;10079;55.740;37.662;2022-11-09T15:33:26;18.37;;;9.73;;
19836;SDS011;10079;55.740;37.662;2022-11-09T15:36:39;17.23;;;10.17;;
19836;SDS011;10079;55.740;37.662;2022-11-09T15:39:43;18.03;;;9.83;;
19836;SDS011;10079;55.740;37.662;2022-11-09T15:42:46;21.60;;;10.80;;
19836;SDS011;10079;55.740;37.662;2022-11-09T15:45:49;18.57;;;10.10;;
19836;SDS011;10079;55.740;37.662;2022-11-09T15:48:52;18.03;;;10.87;;
19836;SDS011;10079;55.740;37.662;2022-11-09T15:52:11;16.60;;;10.13;;
19836;SDS011;10079;55.740;37.662;2022-11-09T15:55:16;17.70;;;10.73;;
19836;SDS011;10079;55.740;37.662;2022-11-09T15:58:18;20.07;;;11.17;;
19836;SDS011;10079;55.740;37.662;2022-11-09T16:01:21;17.73;;;10.83;;
19836;SDS011;10079;55.740;37.662;2022-11-09T16:04:33;18.60;;;10.43;;
19836;SDS011;10079;55.740;37.662;2022-11-09T16:07:47;18.40;;;9.77;;
19836;SDS011;10079;55.740;37.662;2022-11-09T16:21:28;18.07;;;10.27;;
19836;SDS011;10079;55.740;37.662;2022-11-09T16:24:34;17.43;;;10.87;;
19836;SDS011;10079;55.740;37.662;2022-11-09T16:27:46;16.60;;;10.27;;
19836;SDS011;10079;55.740;37.662;2022-11-09T16:31:01;19.10;;;11.13;;
19836;SDS011;10079;55.740;37.662;2022-11-09T16:34:16;17.73;;;10.83;;
19836;SDS011;10079;55.740;37.662;2022-11-09T16:37:31;22.97;;;12.77;;
19836;SDS011;10079;55.740;37.662;2022-11-09T16:40:46;21.03;;;11.40;;
19836;SDS011;10079;55.740;37.662;2022-11-09T16:54:27;20.03;;;12.77;;
19836;SDS011;10079;55.740;37.662;2022-11-09T16:57:42;16.33;;;11.27;;
19836;SDS011;10079;55.740;37.662;2022-11-09T17:00:47;21.80;;;11.67;;
19836;SDS011;10079;55.740;37.662;2022-11-09T17:04:00;21.50;;;12.20;;
19836;SDS011;10079;55.740;37.662;2022-11-09T17:07:08;19.00;;;11.70;;
19836;SDS011;10079;55.740;37.662;2022-11-09T17:20:55;19.33;;;12.57;;
19836;SDS011;10079;55.740;37.662;2022-11-09T17:23:58;17.03;;;11.40;;
19836;SDS011;10079;55.740;37.662;2022-11-09T17:27:01;18.37;;;11.77;;
19836;SDS011;10079;55.740;37.662;2022-11-09T17:30:05;19.40;;;11.13;;
19836;SDS011;10079;55.740;37.662;2022-11-09T17:33:08;17.00;;;11.03;;
19836;SDS011;10079;55.740;37.662;2022-11-09T17:36:13;17.20;;;11.50;;
19836;SDS011;10079;55.740;37.662;2022-11-09T17:39:19;19.43;;;12.00;;
19836;SDS011;10079;55.740;37.662;2022-11-09T17:42:22;19.33;;;10.93;;
19836;SDS011;10079;55.740;37.662;2022-11-09T17:45:25;13.83;;;9.90;;
19836;SDS011;10079;55.740;37.662;2022-11-09T17:48:41;18.77;;;11.67;;
19836;SDS011;10079;55.740;37.662;2022-11-09T17:51:47;16.50;;;10.90;;
19836;SDS011;10079;55.740;37.662;2022-11-09T17:55:02;16.87;;;10.47;;
19836;SDS011;10079;55.740;37.662;2022-11-09T17:58:05;16.87;;;10.07;;
19836;SDS011;10079;55.740;37.662;2022-11-09T18:01:10;18.33;;;11.70;;
19836;SDS011;10079;55.740;37.662;2022-11-09T18:04:15;16.17;;;10.90;;
19836;SDS011;10079;55.740;37.662;2022-11-09T18:07:21;16.20;;;10.33;;
19836;SDS011;10079;55.740;37.662;2022-11-09T18:10:25;15.77;;;10.23;;
19836;SDS011;10079;55.740;37.662;2022-11-09T18:13:28;17.30;;;9.83;;
19836;SDS011;10079;55.740;37.662;2022-11-09T18:16:31;16.50;;;9.80;;
19836;SDS011;10079;55.740;37.662;2022-11-09T18:19:33;18.03;;;10.17;;
19836;SDS011;10079;55.740;37.662;2022-11-09T18:22:37;13.53;;;9.33;;
19836;SDS011;10079;55.740;37.662;2022-11-09T18:25:40;12.97;;;8.17;;
19836;SDS011;10079;55.740;37.662;2022-11-09T18:28:50;12.27;;;9.40;;
19836;SDS011;10079;55.740;37.662;2022-11-09T18:31:53;14.07;;;9.53;;
19836;SDS011;10079;55.740;37.662;2022-11-09T18:35:00;13.13;;;8.47;;
19836;SDS011;10079;55.740;37.662;2022-11-09T18:38:03;11.10;;;8.73;;
19836;SDS011;10079;55.740;37.662;2022-11-09T18:52:01;12.40;;;9.00;;
19836;SDS011;10079;55.740;37.662;2022-11-09T18:55:04;12.93;;;8.70;;
19836;SDS011;10079;55.740;37.662;2022-11-09T18:58:19;11.73;;;8.13;;
19836;SDS011;10079;55.740;37.662;2022-11-09T19:01:25;11.70;;;7.63;;
19836;SDS011;10079;55.740;37.662;2022-11-09T19:04:31;12.37;;;8.67;;
19836;SDS011;10079;55.740;37.662;2022-11-09T19:07:43;11.93;;;8.03;;
19836;SDS011;10079;55.740;37.662;2022-11-09T19:11:02;10.90;;;7.80;;
19836;SDS011;10079;55.740;37.662;2022-11-09T19:14:04;14.07;;;8.67;;
19836;SDS011;10079;55.740;37.662;2022-11-09T19:17:11;15.47;;;9.33;;
19836;SDS011;10079;55.740;37.662;2022-11-09T19:20:17;12.93;;;7.90;;
19836;SDS011;10079;55.740;37.662;2022-11-09T19:23:23;12.40;;;8.40;;
19836;SDS011;10079;55.740;37.662;2022-11-09T19:26:26;13.80;;;8.53;;
19836;SDS011;10079;55.740;37.662;2022-11-09T19:40:03;12.30;;;8.10;;
19836;SDS011;10079;55.740;37.662;2022-11-09T19:43:06;11.17;;;7.93;;
19836;SDS011;10079;55.740;37.662;2022-11-09T19:46:10;9.43;;;7.03;;
19836;SDS011;10079;55.740;37.662;2022-11-09T19:49:15;13.23;;;7.93;;
19836;SDS011;10079;55.740;37.662;2022-11-09T20:02:50;10.00;;;7.57;;
19836;SDS011;10079;55.740;37.662;2022-11-09T20:06:01;10.10;;;7.20;;
19836;SDS011;10079;55.740;37.662;2022-11-09T20:19:44;14.67;;;7.83;;
19836;SDS011;10079;55.740;37.662;2022-11-09T20:22:47;10.10;;;7.37;;
19836;SDS011;10079;55.740;37.662;2022-11-09T20:25:51;11.90;;;7.73;;
19836;SDS011;10079;55.740;37.662;2022-11-09T20:29:00;13.10;;;7.20;;
19836;SDS011;10079;55.740;37.662;2022-11-09T20:32:03;13.37;;;7.83;;
19836;SDS011;10079;55.740;37.662;2022-11-09T20:35:14;11.70;;;7.20;;
19836;SDS011;10079;55.740;37.662;2022-11-09T20:38:18;10.27;;;7.30;;
19836;SDS011;10079;55.740;37.662;2022-11-09T20:41:21;11.00;;;6.67;;
19836;SDS011;10079;55.740;37.662;2022-11-09T20:44:24;11.13;;;6.87;;
19836;SDS011;10079;55.740;37.662;2022-11-09T20:47:27;10.03;;;6.60;;
19836;SDS011;10079;55.740;37.662;2022-11-09T20:50:33;11.23;;;7.00;;
19836;SDS011;10079;55.740;37.662;2022-11-09T20:53:46;12.33;;;7.57;;
19836;SDS011;10079;55.740;37.662;2022-11-09T20:56:48;11.20;;;7.20;;
19836;SDS011;10079;55.740;37.662;2022-11-09T20:59:51;13.10;;;7.47;;
19836;SDS011;10079;55.740;37.662;2022-11-09T21:02:58;13.63;;;7.00;;
19836;SDS011;10079;55.740;37.662;2022-11-09T21:06:04;10.80;;;6.83;;
19836;SDS011;10079;55.740;37.662;2022-11-09T21:09:08;13.33;;;7.63;;
19836;SDS011;10079;55.740;37.662;2022-11-09T21:12:11;10.67;;;7.37;;
19836;SDS011;10079;55.740;37.662;2022-11-09T21:15:14;10.00;;;6.90;;
19836;SDS011;10079;55.740;37.662;2022-11-09T21:18:17;13.83;;;7.40;;
19836;SDS011;10079;55.740;37.662;2022-11-09T21:21:21;12.23;;;7.60;;
19836;SDS011;10079;55.740;37.662;2022-11-09T21:24:23;13.60;;;7.80;;
19836;SDS011;10079;55.740;37.662;2022-11-09T21:27:27;11.37;;;8.30;;
19836;SDS011;10079;55.740;37.662;2022-11-09T21:30:30;11.47;;;7.33;;
19836;SDS011;10079;55.740;37.662;2022-11-09T21:33:33;13.53;;;7.83;;
19836;SDS011;10079;55.740;37.662;2022-11-09T21:36:37;13.10;;;7.77;;
19836;SDS011;10079;55.740;37.662;2022-11-09T21:39:43;9.20;;;7.37;;
19836;SDS011;10079;55.740;37.662;2022-11-09T21:42:49;11.90;;;7.87;;
19836;SDS011;10079;55.740;37.662;2022-11-09T21:45:55;11.63;;;7.37;;
19836;SDS011;10079;55.740;37.662;2022-11-09T21:48:58;14.80;;;8.30;;
19836;SDS011;10079;55.740;37.662;2022-11-09T21:52:10;11.73;;;7.40;;
19836;SDS011;10079;55.740;37.662;2022-11-09T21:55:13;11.37;;;8.30;;
19836;SDS011;10079;55.740;37.662;2022-11-09T21:58:16;12.03;;;7.90;;
19836;SDS011;10079;55.740;37.662;2022-11-09T22:11:50;11.17;;;8.53;;
19836;SDS011;10079;55.740;37.662;2022-11-09T22:14:56;13.10;;;7.80;;
19836;SDS011;10079;55.740;37.662;2022-11-09T22:17:59;11.13;;;7.60;;
19836;SDS011;10079;55.740;37.662;2022-11-09T22:21:02;12.63;;;8.13;;
19836;SDS011;10079;55.740;37.662;2022-11-09T22:24:18;12.33;;;8.27;;
19836;SDS011;10079;55.740;37.662;2022-11-09T22:27:22;12.77;;;7.80;;
19836;SDS011;10079;55.740;37.662;2022-11-09T22:30:35;10.80;;;8.27;;
19836;SDS011;10079;55.740;37.662;2022-11-09T22:33:41;11.70;;;8.17;;
19836;SDS011;10079;55.740;37.662;2022-11-09T22:36:44;13.07;;;8.13;;
19836;SDS011;10079;55.740;37.662;2022-11-09T22:39:47;11.57;;;7.90;;
19836;SDS011;10079;55.740;37.662;2022-11-09T22:53:30;13.27;;;8.47;;
19836;SDS011;10079;55.740;37.662;2022-11-09T22:56:35;12.23;;;8.17;;
19836;SDS011;10079;55.740;37.662;2022-11-09T22:59:39;11.63;;;7.90;;
19836;SDS011;10079;55.740;37.662;2022-11-09T23:02:41;12.40;;;8.27;;
19836;SDS011;10079;55.740;37.662;2022-11-09T23:05:45;13.83;;;8.90;;
19836;SDS011;10079;55.740;37.662;2022-11-09T23:08:49;13.60;;;7.50;;
19836;SDS011;10079;55.740;37.662;2022-11-09T23:11:52;11.97;;;7.77;;
19836;SDS011;10079;55.740;37.662;2022-11-09T23:14:54;13.00;;;8.07;;
19836;SDS011;10079;55.740;37.662;2022-11-09T23:17:57;13.87;;;8.03;;
19836;SDS011;10079;55.740;37.662;2022-11-09T23:21:13;14.47;;;8.30;;
19836;SDS011;10079;55.740;37.662;2022-11-09T23:24:20;14.03;;;8.83;;
19836;SDS011;10079;55.740;37.662;2022-11-09T23:27:23;16.87;;;8.60;;
19836;SDS011;10079;55.740;37.662;2022-11-09T23:30:26;11.87;;;7.90;;
19836;SDS011;10079;55.740;37.662;2022-11-09T23:33:33;14.50;;;8.10;;
19836;SDS011;10079;55.740;37.662;2022-11-09T23:36:39;12.67;;;8.07;;
19836;SDS011;10079;55.740;37.662;2022-11-09T23:39:45;12.70;;;8.40;;
19836;SDS011;10079;55.740;37.662;2022-11-09T23:42:59;12.57;;;8.60;;